x

Corpus Christi, Tx - 60nm Sse Of Corpus Christi, Tx (42020) Wave Buoy

10:50pm - Thu 11th Feb 2016 All times are CST. -6 hours from GMT.

  • Sig Wave height 3.3ft
  • Swell Direction
  • Peak Period 6s
  • Average Period 4s
  • Wind
    16mph, 18mph gusts
  • Sea Temp 67°f
  • Air Temp 67°f
  • Sea Pressure 1022.3mb
  • Corpus Christi, Tx - 60nm Sse Of Corpus Christi, Tx
  • Corpus Christi, Tx - 60nm Sse Of Corpus Christi, Tx

More Historic Weather Station data

Upgrade to MSW Pro to gain access to the past 30 days of data for over 8000 Wavebouys and Weather Stations around the globe.

Join Pro

Comparision Forecast

View Surf forecast
   
Thu 02/11 10:50pm 3.5ft 6s 4s 16 18 mph 1022.3mb 67f 67f
9:50pm 3ft 6s 4s 16 18 mph 1022.1mb 67f 67f
8:50pm 3.5ft 6s 4s 16 18 mph 1021.5mb 67f 67f
7:50pm 3.5ft 6s 5s 16 18 mph 1021.3mb 68f 67f
6:50pm 3ft 6s 4s 16 18 mph 1021.2mb 68f 67f
5:50pm 3ft 6s 4s 16 18 mph 1021.1mb 68f 67f
4:50pm 3.5ft 6s 5s 16 18 mph 1020.7mb 68f 67f
3:50pm 3.5ft 6s 5s 16 18 mph 1020.5mb 68f 66f
2:50pm 3ft 6s 4s 16 18 mph 1021mb 69f 66f
1:50pm 2.5ft 6s 4s 16 20 mph 1021.5mb 69f 66f
12:50pm 2.5ft 6s 4s 18 20 mph 1022.3mb 69f 66f
11:50am 2.5ft 6s 4s 18 22 mph 1023.2mb 69f 66f
10:50am 2.5ft 6s 4s 20 22 mph 1023.4mb 70f 66f
9:50am 2.5ft 6s 4s 18 22 mph 1023.5mb 70f 66f
5:50am 3ft 4s 3s 20 25 mph 1022mb 69f 65f
4:50am 2.5ft 4s 3s 20 25 mph 1022mb 69f 65f
3:50am 2.5ft 4s 3s 20 25 mph 1022.1mb 68f 66f
2:50am 3ft 4s 4s 20 27 mph 1022.6mb 68f 65f
1:50am 3ft 4s 4s 20 25 mph 1023mb 68f 66f
12:50am 3ft 4s 4s 20 25 mph 1023.7mb 68f 66f
Wed 02/10 11:50pm 3.5ft 4s 4s 20 25 mph 1024.1mb 67f 66f
10:50pm 3.5ft 4s 4s 22 25 mph 1024.6mb 67f 67f
9:50pm 3.5ft 4s 4s 22 27 mph 1024.9mb 67f 67f
8:50pm 3ft 4s 4s 22 27 mph 1025.2mb 67f 67f
7:50pm 2.5ft 4s 3s 20 25 mph 1025.3mb 66f 66f
6:50pm 2ft 3s 3s 20 25 mph 1025.4mb 65f 66f
5:50pm 1.3ft 3s 3s 16 18 mph 1025.6mb 65f 66f
4:50pm 1ft 3s 3s 16 18 mph 1025.3mb 65f 65f
3:50pm 1ft 3s 3s 11 13 mph 1025.9mb 65f 65f
2:50pm 1ft 3s 3s 9 11 mph 1026.6mb 65f 64f
1:50pm 1ft 3s 3s 4
mph
1027.5mb 65f 63f
12:50pm 1.3ft 3s 3s 2 4 mph 1028.6mb 65f 62f
11:50am 1.3ft 3s 3s 4
mph
1029.4mb 66f 61f
10:50am 1.3ft 3s 3s 4 7 mph 1029.6mb 66f 61f
9:50am 1.6ft 3s 3s 11 13 mph 1029.1mb 66f 62f
8:50am 1.6ft 3s 3s 13
mph
1028.5mb 66f 62f
7:50am 1.6ft 3s 3s 16 18 mph 1027.6mb 66f 63f
6:50am 2ft 3s 3s 16 18 mph 1027mb 66f 63f
5:50am 2ft 3s 3s 16 18 mph 1026.6mb 66f 63f
4:50am 2ft 3s 3s 16 20 mph 1026.3mb 66f 62f
3:50am 2ft 3s 3s 16 20 mph 1026mb 67f 64f
2:50am 1.6ft 3s 3s 18 20 mph 1025.8mb 69f 64f
1:50am 1.3ft 3s 3s 16 18 mph 1026.2mb 69f 64f
12:50am 1.6ft 5s 3s 16
mph
1026.5mb 69f 65f
Tue 02/09 11:50pm 1.3ft 5s 4s 11 16 mph 1026.8mb 69f 66f
10:50pm 1.3ft 6s 5s 11
mph
1027mb 69f 65f
9:50pm 1.6ft 5s 5s 7 9 mph 1026.8mb 69f 66f
8:50pm 1.6ft 5s 5s 7 9 mph 1026.4mb 69f 65f
7:50pm 2ft 5s 5s 7 9 mph 1026.1mb 69f 64f
6:50pm 1.6ft 6s 4s 7
mph
1025.5mb 69f 64f
5:50pm 2ft 4s 4s 2 7 mph 1025.4mb 69f 64f
4:50pm 2ft 4s 4s 2 4 mph 1025.3mb 70f 63f
3:50pm 2.5ft 5s 4s 7 9 mph 1025.4mb 70f 62f
2:50pm 2.5ft 4s 4s 9 13 mph 1025.9mb 70f 62f
1:50pm 2ft 4s 4s 13 16 mph 1026.4mb 69f 62f
12:50pm 2.5ft 5s 4s 13 16 mph 1027.6mb 70f 61f
11:50am 2.5ft 3s 4s 16 18 mph 1028.7mb 70f 61f
10:50am 2ft 5s 4s 16 18 mph 1029.2mb 69f 62f
9:50am 2ft 5s 4s 13 16 mph 1029.3mb 69f 62f
8:50am 2.5ft 6s 4s 13 18 mph 1028.7mb 69f 62f
7:50am 2.5ft 6s 4s 13 16 mph 1028.3mb 69f 62f
6:50am 2.5ft 6s 4s 13 16 mph 1028mb 69f 61f
5:50am 3ft 6s 4s 13 16 mph 1027.4mb 69f 62f
4:50am 3ft 6s 5s 9 11 mph 1026.9mb 69f 62f
3:50am 3.5ft 7s 5s 11 13 mph 1026.9mb 69f 63f
2:50am 3.5ft 6s 5s 11 16 mph 1026.7mb 69f 64f
1:50am 3ft 6s 5s 11 16 mph 1027.2mb 69f 64f
12:50am 2.5ft 6s 5s 11 13 mph 1027.7mb 69f 64f
Mon 02/08 11:50pm 3ft 6s 5s 11 16 mph 1027.9mb 69f 64f
10:50pm 3ft 7s 5s 11 13 mph 1027.9mb 69f 64f
9:50pm 3.5ft 6s 5s 11 13 mph 1027.5mb 69f 64f
8:50pm 4ft 7s 5s 11 13 mph 1026.7mb 69f 64f
7:50pm 4.5ft 7s 5s 7 9 mph 1026.3mb 69f 63f
6:50pm 4.5ft 7s 5s 9 11 mph 1026.1mb 69f 63f
5:50pm 5ft 7s 5s 13 16 mph 1026.1mb 69f 63f
4:50pm 5.5ft 7s 5s 16 20 mph 1025.6mb 69f 62f
3:50pm 6ft 6s 5s 16 20 mph 1025.7mb 69f 61f
2:50pm 5.5ft 6s 5s 20 25 mph 1025.7mb 69f 61f
1:50pm 5ft 6s 5s 25 31 mph 1025.8mb 69f 61f
12:50pm 3.5ft 5s 4s 27 34 mph 1026.1mb 69f 62f
11:50am 2.5ft 4s 4s 22 25 mph 1026.6mb 69f 62f
10:50am 2.5ft 4s 4s 16 20 mph 1026.9mb 69f 62f
9:50am 2ft 3s 3s 16 20 mph 1026.2mb 69f 62f
8:50am 1.3ft 7s 4s 18 20 mph 1025.1mb 69f 61f
7:50am 1.3ft 4s 4s 13 16 mph 1024.3mb 69f 65f
6:50am 1.3ft 4s 4s 7 9 mph 1023.3mb 69f 65f